sensor_id;sensor_type;location;lat;lon;timestamp;P1;durP1;ratioP1;P2;durP2;ratioP2
23716;SDS011;22094;52.130;5.598;2023-11-19T00:02:24;22.63;;;11.43;;
23716;SDS011;22094;52.130;5.598;2023-11-19T00:04:50;20.00;;;10.63;;
23716;SDS011;22094;52.130;5.598;2023-11-19T00:07:15;26.77;;;10.48;;
23716;SDS011;22094;52.130;5.598;2023-11-19T00:09:41;21.17;;;11.18;;
23716;SDS011;22094;52.130;5.598;2023-11-19T00:12:08;22.55;;;11.82;;
23716;SDS011;22094;52.130;5.598;2023-11-19T00:14:34;22.65;;;11.70;;
23716;SDS011;22094;52.130;5.598;2023-11-19T00:16:59;21.30;;;11.15;;
23716;SDS011;22094;52.130;5.598;2023-11-19T00:19:25;21.33;;;11.65;;
23716;SDS011;22094;52.130;5.598;2023-11-19T00:21:51;20.63;;;11.07;;
23716;SDS011;22094;52.130;5.598;2023-11-19T00:24:17;21.52;;;10.15;;
23716;SDS011;22094;52.130;5.598;2023-11-19T00:26:43;26.30;;;10.45;;
23716;SDS011;22094;52.130;5.598;2023-11-19T00:29:09;22.02;;;10.63;;
23716;SDS011;22094;52.130;5.598;2023-11-19T00:31:35;21.73;;;9.82;;
23716;SDS011;22094;52.130;5.598;2023-11-19T00:34:01;24.23;;;9.88;;
23716;SDS011;22094;52.130;5.598;2023-11-19T00:36:31;21.95;;;9.70;;
23716;SDS011;22094;52.130;5.598;2023-11-19T00:38:56;23.05;;;9.52;;
23716;SDS011;22094;52.130;5.598;2023-11-19T00:41:23;26.08;;;9.95;;
23716;SDS011;22094;52.130;5.598;2023-11-19T00:43:48;23.33;;;9.13;;
23716;SDS011;22094;52.130;5.598;2023-11-19T00:46:14;27.27;;;9.27;;
23716;SDS011;22094;52.130;5.598;2023-11-19T00:48:39;28.42;;;9.40;;
23716;SDS011;22094;52.130;5.598;2023-11-19T00:51:05;25.13;;;8.88;;
23716;SDS011;22094;52.130;5.598;2023-11-19T00:53:31;33.85;;;9.00;;
23716;SDS011;22094;52.130;5.598;2023-11-19T00:55:57;29.77;;;8.98;;
23716;SDS011;22094;52.130;5.598;2023-11-19T00:58:23;25.92;;;7.90;;
23716;SDS011;22094;52.130;5.598;2023-11-19T01:00:48;32.22;;;8.15;;
23716;SDS011;22094;52.130;5.598;2023-11-19T01:03:14;28.88;;;8.52;;
23716;SDS011;22094;52.130;5.598;2023-11-19T01:05:41;37.00;;;8.95;;
23716;SDS011;22094;52.130;5.598;2023-11-19T01:08:06;25.50;;;7.65;;
23716;SDS011;22094;52.130;5.598;2023-11-19T01:10:33;23.00;;;7.30;;
23716;SDS011;22094;52.130;5.598;2023-11-19T01:12:59;28.80;;;7.90;;
23716;SDS011;22094;52.130;5.598;2023-11-19T01:15:25;28.88;;;7.07;;
23716;SDS011;22094;52.130;5.598;2023-11-19T01:17:51;32.63;;;8.02;;
23716;SDS011;22094;52.130;5.598;2023-11-19T01:20:16;36.75;;;7.72;;
23716;SDS011;22094;52.130;5.598;2023-11-19T01:22:42;27.67;;;7.10;;
23716;SDS011;22094;52.130;5.598;2023-11-19T01:25:08;30.17;;;7.18;;
23716;SDS011;22094;52.130;5.598;2023-11-19T01:27:34;32.67;;;7.05;;
23716;SDS011;22094;52.130;5.598;2023-11-19T01:30:00;29.90;;;6.53;;
23716;SDS011;22094;52.130;5.598;2023-11-19T01:32:28;33.10;;;7.18;;
23716;SDS011;22094;52.130;5.598;2023-11-19T01:34:54;31.25;;;6.75;;
23716;SDS011;22094;52.130;5.598;2023-11-19T01:37:20;30.77;;;7.53;;
23716;SDS011;22094;52.130;5.598;2023-11-19T01:39:45;38.15;;;7.35;;
23716;SDS011;22094;52.130;5.598;2023-11-19T01:42:11;28.70;;;6.50;;
23716;SDS011;22094;52.130;5.598;2023-11-19T01:44:40;34.38;;;6.97;;
23716;SDS011;22094;52.130;5.598;2023-11-19T01:47:06;35.80;;;7.30;;
23716;SDS011;22094;52.130;5.598;2023-11-19T01:49:32;37.10;;;7.15;;
23716;SDS011;22094;52.130;5.598;2023-11-19T01:51:58;37.08;;;7.43;;
23716;SDS011;22094;52.130;5.598;2023-11-19T01:54:24;42.65;;;7.63;;
23716;SDS011;22094;52.130;5.598;2023-11-19T01:56:50;35.83;;;6.90;;
23716;SDS011;22094;52.130;5.598;2023-11-19T01:59:21;33.97;;;6.57;;
23716;SDS011;22094;52.130;5.598;2023-11-19T02:01:51;43.05;;;7.35;;
23716;SDS011;22094;52.130;5.598;2023-11-19T02:04:17;36.83;;;7.38;;
23716;SDS011;22094;52.130;5.598;2023-11-19T02:06:43;42.08;;;7.63;;
23716;SDS011;22094;52.130;5.598;2023-11-19T02:09:13;39.53;;;6.65;;
23716;SDS011;22094;52.130;5.598;2023-11-19T02:11:41;38.15;;;6.82;;
23716;SDS011;22094;52.130;5.598;2023-11-19T02:14:07;32.85;;;6.43;;
23716;SDS011;22094;52.130;5.598;2023-11-19T02:16:33;38.97;;;6.68;;
23716;SDS011;22094;52.130;5.598;2023-11-19T02:18:59;39.97;;;7.45;;
23716;SDS011;22094;52.130;5.598;2023-11-19T02:21:24;38.60;;;6.90;;
23716;SDS011;22094;52.130;5.598;2023-11-19T02:23:50;47.47;;;7.25;;
23716;SDS011;22094;52.130;5.598;2023-11-19T02:26:23;40.80;;;7.45;;
23716;SDS011;22094;52.130;5.598;2023-11-19T02:28:49;40.20;;;7.65;;
23716;SDS011;22094;52.130;5.598;2023-11-19T02:31:15;39.45;;;7.07;;
23716;SDS011;22094;52.130;5.598;2023-11-19T02:33:40;41.10;;;7.68;;
23716;SDS011;22094;52.130;5.598;2023-11-19T02:36:06;40.25;;;6.75;;
23716;SDS011;22094;52.130;5.598;2023-11-19T02:38:33;44.58;;;7.68;;
23716;SDS011;22094;52.130;5.598;2023-11-19T02:41:02;42.08;;;7.07;;
23716;SDS011;22094;52.130;5.598;2023-11-19T02:43:31;41.20;;;7.35;;
23716;SDS011;22094;52.130;5.598;2023-11-19T02:45:58;45.72;;;7.65;;
23716;SDS011;22094;52.130;5.598;2023-11-19T02:48:27;47.83;;;8.07;;
23716;SDS011;22094;52.130;5.598;2023-11-19T02:50:53;42.97;;;7.15;;
23716;SDS011;22094;52.130;5.598;2023-11-19T02:53:18;40.53;;;6.80;;
23716;SDS011;22094;52.130;5.598;2023-11-19T02:55:47;47.65;;;7.20;;
23716;SDS011;22094;52.130;5.598;2023-11-19T02:58:14;39.35;;;6.85;;
23716;SDS011;22094;52.130;5.598;2023-11-19T03:00:49;49.72;;;8.57;;
23716;SDS011;22094;52.130;5.598;2023-11-19T03:03:22;42.80;;;7.20;;
23716;SDS011;22094;52.130;5.598;2023-11-19T03:06:03;45.22;;;7.72;;
23716;SDS011;22094;52.130;5.598;2023-11-19T03:08:30;47.22;;;8.23;;
23716;SDS011;22094;52.130;5.598;2023-11-19T03:10:55;53.55;;;8.88;;
23716;SDS011;22094;52.130;5.598;2023-11-19T03:13:21;43.78;;;7.88;;
23716;SDS011;22094;52.130;5.598;2023-11-19T03:15:47;53.40;;;8.40;;
23716;SDS011;22094;52.130;5.598;2023-11-19T03:18:12;42.75;;;7.60;;
23716;SDS011;22094;52.130;5.598;2023-11-19T03:20:38;56.60;;;8.02;;
23716;SDS011;22094;52.130;5.598;2023-11-19T03:23:04;51.38;;;8.70;;
23716;SDS011;22094;52.130;5.598;2023-11-19T03:25:31;56.47;;;9.00;;
23716;SDS011;22094;52.130;5.598;2023-11-19T03:27:59;54.08;;;8.50;;
23716;SDS011;22094;52.130;5.598;2023-11-19T03:30:28;46.85;;;8.43;;
23716;SDS011;22094;52.130;5.598;2023-11-19T03:32:55;55.42;;;9.07;;
23716;SDS011;22094;52.130;5.598;2023-11-19T03:35:22;55.42;;;9.38;;
23716;SDS011;22094;52.130;5.598;2023-11-19T03:37:48;48.92;;;9.38;;
23716;SDS011;22094;52.130;5.598;2023-11-19T03:40:13;47.35;;;8.60;;
23716;SDS011;22094;52.130;5.598;2023-11-19T03:42:39;50.67;;;8.30;;
23716;SDS011;22094;52.130;5.598;2023-11-19T03:45:06;55.63;;;8.52;;
23716;SDS011;22094;52.130;5.598;2023-11-19T03:47:33;58.00;;;9.13;;
23716;SDS011;22094;52.130;5.598;2023-11-19T03:50:00;65.00;;;9.75;;
23716;SDS011;22094;52.130;5.598;2023-11-19T03:52:25;62.08;;;9.45;;
23716;SDS011;22094;52.130;5.598;2023-11-19T03:54:54;63.08;;;8.90;;
23716;SDS011;22094;52.130;5.598;2023-11-19T03:57:21;60.33;;;9.38;;
23716;SDS011;22094;52.130;5.598;2023-11-19T03:59:47;59.40;;;8.02;;
23716;SDS011;22094;52.130;5.598;2023-11-19T04:02:13;59.83;;;9.50;;
23716;SDS011;22094;52.130;5.598;2023-11-19T04:04:40;60.03;;;8.77;;
23716;SDS011;22094;52.130;5.598;2023-11-19T04:07:05;59.75;;;9.35;;
23716;SDS011;22094;52.130;5.598;2023-11-19T04:09:31;78.25;;;10.23;;
23716;SDS011;22094;52.130;5.598;2023-11-19T04:11:58;59.72;;;8.65;;
23716;SDS011;22094;52.130;5.598;2023-11-19T04:14:24;60.13;;;9.02;;
23716;SDS011;22094;52.130;5.598;2023-11-19T04:16:50;54.75;;;9.48;;
23716;SDS011;22094;52.130;5.598;2023-11-19T04:19:16;59.72;;;9.40;;
23716;SDS011;22094;52.130;5.598;2023-11-19T04:21:42;61.33;;;8.00;;
23716;SDS011;22094;52.130;5.598;2023-11-19T04:24:08;59.22;;;9.18;;
23716;SDS011;22094;52.130;5.598;2023-11-19T04:26:39;54.88;;;9.27;;
23716;SDS011;22094;52.130;5.598;2023-11-19T04:29:08;66.95;;;9.63;;
23716;SDS011;22094;52.130;5.598;2023-11-19T04:31:34;69.72;;;10.27;;
23716;SDS011;22094;52.130;5.598;2023-11-19T04:34:00;62.70;;;9.30;;
23716;SDS011;22094;52.130;5.598;2023-11-19T04:36:25;57.83;;;8.50;;
23716;SDS011;22094;52.130;5.598;2023-11-19T04:38:51;60.00;;;9.40;;
23716;SDS011;22094;52.130;5.598;2023-11-19T04:41:16;62.22;;;9.13;;
23716;SDS011;22094;52.130;5.598;2023-11-19T04:43:42;68.18;;;9.85;;
23716;SDS011;22094;52.130;5.598;2023-11-19T04:46:09;71.55;;;9.07;;
23716;SDS011;22094;52.130;5.598;2023-11-19T04:48:35;58.42;;;9.38;;
23716;SDS011;22094;52.130;5.598;2023-11-19T04:51:00;54.78;;;8.93;;
23716;SDS011;22094;52.130;5.598;2023-11-19T04:53:30;58.17;;;9.60;;
23716;SDS011;22094;52.130;5.598;2023-11-19T04:55:55;62.40;;;8.80;;
23716;SDS011;22094;52.130;5.598;2023-11-19T04:58:21;67.00;;;9.98;;
23716;SDS011;22094;52.130;5.598;2023-11-19T05:03:48;56.55;;;8.50;;
23716;SDS011;22094;52.130;5.598;2023-11-19T05:06:13;50.63;;;8.00;;
23716;SDS011;22094;52.130;5.598;2023-11-19T05:08:40;59.22;;;8.90;;
23716;SDS011;22094;52.130;5.598;2023-11-19T05:11:05;52.38;;;7.65;;
23716;SDS011;22094;52.130;5.598;2023-11-19T05:13:31;59.42;;;9.80;;
23716;SDS011;22094;52.130;5.598;2023-11-19T05:15:57;58.47;;;9.88;;
23716;SDS011;22094;52.130;5.598;2023-11-19T05:18:22;57.17;;;9.23;;
23716;SDS011;22094;52.130;5.598;2023-11-19T05:20:48;49.03;;;8.07;;
23716;SDS011;22094;52.130;5.598;2023-11-19T05:23:14;51.03;;;8.15;;
23716;SDS011;22094;52.130;5.598;2023-11-19T05:25:39;64.85;;;9.30;;
23716;SDS011;22094;52.130;5.598;2023-11-19T05:28:05;54.85;;;9.23;;
23716;SDS011;22094;52.130;5.598;2023-11-19T05:30:30;55.47;;;8.50;;
23716;SDS011;22094;52.130;5.598;2023-11-19T05:32:56;48.65;;;8.27;;
23716;SDS011;22094;52.130;5.598;2023-11-19T05:35:21;50.88;;;8.43;;
23716;SDS011;22094;52.130;5.598;2023-11-19T05:37:47;57.70;;;8.48;;
23716;SDS011;22094;52.130;5.598;2023-11-19T05:40:15;54.13;;;9.13;;
23716;SDS011;22094;52.130;5.598;2023-11-19T05:42:40;54.33;;;8.38;;
23716;SDS011;22094;52.130;5.598;2023-11-19T05:45:07;61.40;;;8.50;;
23716;SDS011;22094;52.130;5.598;2023-11-19T05:47:33;54.45;;;7.95;;
23716;SDS011;22094;52.130;5.598;2023-11-19T05:49:59;50.72;;;7.30;;
23716;SDS011;22094;52.130;5.598;2023-11-19T05:52:25;58.35;;;9.55;;
23716;SDS011;22094;52.130;5.598;2023-11-19T05:54:50;46.83;;;8.30;;
23716;SDS011;22094;52.130;5.598;2023-11-19T05:57:17;51.70;;;8.63;;
23716;SDS011;22094;52.130;5.598;2023-11-19T05:59:49;58.58;;;8.38;;
23716;SDS011;22094;52.130;5.598;2023-11-19T06:02:14;58.67;;;10.10;;
23716;SDS011;22094;52.130;5.598;2023-11-19T06:04:40;63.65;;;9.48;;
23716;SDS011;22094;52.130;5.598;2023-11-19T06:07:09;64.57;;;8.80;;
23716;SDS011;22094;52.130;5.598;2023-11-19T06:09:34;72.80;;;9.27;;
23716;SDS011;22094;52.130;5.598;2023-11-19T06:12:00;60.78;;;8.85;;
23716;SDS011;22094;52.130;5.598;2023-11-19T06:14:27;60.30;;;9.13;;
23716;SDS011;22094;52.130;5.598;2023-11-19T06:16:53;56.42;;;8.13;;
23716;SDS011;22094;52.130;5.598;2023-11-19T06:19:18;59.17;;;8.65;;
23716;SDS011;22094;52.130;5.598;2023-11-19T06:21:44;63.53;;;8.98;;
23716;SDS011;22094;52.130;5.598;2023-11-19T06:24:09;55.90;;;8.77;;
23716;SDS011;22094;52.130;5.598;2023-11-19T06:26:35;56.83;;;8.05;;
23716;SDS011;22094;52.130;5.598;2023-11-19T06:29:00;52.47;;;8.88;;
23716;SDS011;22094;52.130;5.598;2023-11-19T06:31:26;60.50;;;10.27;;
23716;SDS011;22094;52.130;5.598;2023-11-19T06:33:51;55.30;;;8.82;;
23716;SDS011;22094;52.130;5.598;2023-11-19T06:36:18;59.72;;;9.20;;
23716;SDS011;22094;52.130;5.598;2023-11-19T06:38:43;67.72;;;10.18;;
23716;SDS011;22094;52.130;5.598;2023-11-19T06:41:09;64.25;;;8.93;;
23716;SDS011;22094;52.130;5.598;2023-11-19T06:43:35;73.07;;;10.80;;
23716;SDS011;22094;52.130;5.598;2023-11-19T06:46:02;60.85;;;9.18;;
23716;SDS011;22094;52.130;5.598;2023-11-19T06:48:30;60.75;;;9.88;;
23716;SDS011;22094;52.130;5.598;2023-11-19T06:50:59;59.42;;;9.50;;
23716;SDS011;22094;52.130;5.598;2023-11-19T06:53:25;73.05;;;9.93;;
23716;SDS011;22094;52.130;5.598;2023-11-19T06:55:50;60.45;;;10.23;;
23716;SDS011;22094;52.130;5.598;2023-11-19T06:58:16;54.58;;;9.10;;
23716;SDS011;22094;52.130;5.598;2023-11-19T07:00:43;53.95;;;8.23;;
23716;SDS011;22094;52.130;5.598;2023-11-19T07:03:08;68.47;;;9.45;;
23716;SDS011;22094;52.130;5.598;2023-11-19T07:05:35;56.78;;;8.40;;
23716;SDS011;22094;52.130;5.598;2023-11-19T07:08:03;68.68;;;10.52;;
23716;SDS011;22094;52.130;5.598;2023-11-19T07:10:32;60.65;;;10.25;;
23716;SDS011;22094;52.130;5.598;2023-11-19T07:13:00;67.20;;;9.50;;
23716;SDS011;22094;52.130;5.598;2023-11-19T07:15:26;61.13;;;9.30;;
23716;SDS011;22094;52.130;5.598;2023-11-19T07:17:52;59.97;;;8.80;;
23716;SDS011;22094;52.130;5.598;2023-11-19T07:20:19;56.03;;;8.23;;
23716;SDS011;22094;52.130;5.598;2023-11-19T07:22:45;56.20;;;8.57;;
23716;SDS011;22094;52.130;5.598;2023-11-19T07:25:12;63.63;;;8.93;;
23716;SDS011;22094;52.130;5.598;2023-11-19T07:27:38;51.63;;;8.18;;
23716;SDS011;22094;52.130;5.598;2023-11-19T07:30:04;54.08;;;9.43;;
23716;SDS011;22094;52.130;5.598;2023-11-19T07:32:32;64.00;;;10.15;;
23716;SDS011;22094;52.130;5.598;2023-11-19T07:34:58;54.90;;;9.40;;
23716;SDS011;22094;52.130;5.598;2023-11-19T07:37:24;57.88;;;9.27;;
23716;SDS011;22094;52.130;5.598;2023-11-19T07:39:50;53.80;;;8.40;;
23716;SDS011;22094;52.130;5.598;2023-11-19T07:42:15;50.47;;;8.65;;
23716;SDS011;22094;52.130;5.598;2023-11-19T07:44:41;54.35;;;9.23;;
23716;SDS011;22094;52.130;5.598;2023-11-19T07:47:07;47.88;;;8.25;;
23716;SDS011;22094;52.130;5.598;2023-11-19T07:49:33;57.38;;;7.97;;
23716;SDS011;22094;52.130;5.598;2023-11-19T07:51:59;54.47;;;8.52;;
23716;SDS011;22094;52.130;5.598;2023-11-19T07:54:25;58.63;;;8.82;;
23716;SDS011;22094;52.130;5.598;2023-11-19T07:56:51;59.03;;;9.23;;
23716;SDS011;22094;52.130;5.598;2023-11-19T07:59:16;53.42;;;8.30;;
23716;SDS011;22094;52.130;5.598;2023-11-19T08:01:42;50.17;;;8.35;;
23716;SDS011;22094;52.130;5.598;2023-11-19T08:04:07;54.33;;;9.38;;
23716;SDS011;22094;52.130;5.598;2023-11-19T08:06:33;61.20;;;10.02;;
23716;SDS011;22094;52.130;5.598;2023-11-19T08:08:59;56.20;;;9.30;;
23716;SDS011;22094;52.130;5.598;2023-11-19T08:11:25;57.58;;;8.52;;
23716;SDS011;22094;52.130;5.598;2023-11-19T08:13:50;62.13;;;8.98;;
23716;SDS011;22094;52.130;5.598;2023-11-19T08:16:16;55.25;;;8.13;;
23716;SDS011;22094;52.130;5.598;2023-11-19T08:18:45;59.28;;;8.95;;
23716;SDS011;22094;52.130;5.598;2023-11-19T08:21:10;56.60;;;8.75;;
23716;SDS011;22094;52.130;5.598;2023-11-19T08:23:36;60.83;;;9.45;;
23716;SDS011;22094;52.130;5.598;2023-11-19T08:26:03;58.08;;;8.15;;
23716;SDS011;22094;52.130;5.598;2023-11-19T08:28:29;41.88;;;8.30;;
23716;SDS011;22094;52.130;5.598;2023-11-19T08:30:56;46.60;;;7.78;;
23716;SDS011;22094;52.130;5.598;2023-11-19T08:33:23;50.33;;;8.70;;
23716;SDS011;22094;52.130;5.598;2023-11-19T08:35:49;50.97;;;8.77;;
23716;SDS011;22094;52.130;5.598;2023-11-19T08:38:15;55.63;;;9.40;;
23716;SDS011;22094;52.130;5.598;2023-11-19T08:40:41;59.25;;;8.77;;
23716;SDS011;22094;52.130;5.598;2023-11-19T08:43:06;49.97;;;8.18;;
23716;SDS011;22094;52.130;5.598;2023-11-19T08:45:32;52.80;;;8.68;;
23716;SDS011;22094;52.130;5.598;2023-11-19T08:47:58;46.70;;;8.25;;
23716;SDS011;22094;52.130;5.598;2023-11-19T08:50:24;44.10;;;8.23;;
23716;SDS011;22094;52.130;5.598;2023-11-19T08:52:50;51.92;;;9.60;;
23716;SDS011;22094;52.130;5.598;2023-11-19T08:55:15;49.28;;;8.13;;
23716;SDS011;22094;52.130;5.598;2023-11-19T08:57:41;45.45;;;8.32;;
23716;SDS011;22094;52.130;5.598;2023-11-19T09:00:07;43.63;;;8.13;;
23716;SDS011;22094;52.130;5.598;2023-11-19T09:02:34;47.42;;;8.02;;
23716;SDS011;22094;52.130;5.598;2023-11-19T09:05:03;47.58;;;7.28;;
23716;SDS011;22094;52.130;5.598;2023-11-19T09:07:29;41.15;;;7.40;;
23716;SDS011;22094;52.130;5.598;2023-11-19T09:09:55;43.35;;;7.32;;
23716;SDS011;22094;52.130;5.598;2023-11-19T09:12:20;44.85;;;7.25;;
23716;SDS011;22094;52.130;5.598;2023-11-19T09:14:46;50.17;;;8.65;;
23716;SDS011;22094;52.130;5.598;2023-11-19T09:17:11;52.92;;;8.07;;
23716;SDS011;22094;52.130;5.598;2023-11-19T09:19:37;43.78;;;7.25;;
23716;SDS011;22094;52.130;5.598;2023-11-19T09:22:02;43.63;;;6.85;;
23716;SDS011;22094;52.130;5.598;2023-11-19T09:24:28;36.67;;;6.43;;
23716;SDS011;22094;52.130;5.598;2023-11-19T09:26:54;36.83;;;6.72;;
23716;SDS011;22094;52.130;5.598;2023-11-19T09:29:21;48.08;;;8.40;;
23716;SDS011;22094;52.130;5.598;2023-11-19T09:31:46;41.65;;;7.35;;
23716;SDS011;22094;52.130;5.598;2023-11-19T09:34:12;36.55;;;7.10;;
23716;SDS011;22094;52.130;5.598;2023-11-19T09:36:38;49.95;;;7.47;;
23716;SDS011;22094;52.130;5.598;2023-11-19T09:39:08;39.15;;;7.38;;
23716;SDS011;22094;52.130;5.598;2023-11-19T09:41:42;46.38;;;7.20;;
23716;SDS011;22094;52.130;5.598;2023-11-19T09:44:11;36.58;;;7.22;;
23716;SDS011;22094;52.130;5.598;2023-11-19T09:46:38;40.70;;;7.43;;
23716;SDS011;22094;52.130;5.598;2023-11-19T09:49:05;45.88;;;7.85;;
23716;SDS011;22094;52.130;5.598;2023-11-19T09:51:33;42.00;;;7.63;;
23716;SDS011;22094;52.130;5.598;2023-11-19T09:54:00;36.58;;;6.95;;
23716;SDS011;22094;52.130;5.598;2023-11-19T09:56:27;42.00;;;7.45;;
23716;SDS011;22094;52.130;5.598;2023-11-19T09:58:54;45.08;;;7.38;;
23716;SDS011;22094;52.130;5.598;2023-11-19T10:01:20;40.65;;;7.30;;
23716;SDS011;22094;52.130;5.598;2023-11-19T10:03:46;43.83;;;7.75;;
23716;SDS011;22094;52.130;5.598;2023-11-19T10:06:12;39.08;;;7.95;;
23716;SDS011;22094;52.130;5.598;2023-11-19T10:08:41;41.15;;;7.68;;
23716;SDS011;22094;52.130;5.598;2023-11-19T10:11:07;36.33;;;6.47;;
23716;SDS011;22094;52.130;5.598;2023-11-19T10:13:36;37.58;;;8.40;;
23716;SDS011;22094;52.130;5.598;2023-11-19T10:16:15;38.35;;;7.55;;
23716;SDS011;22094;52.130;5.598;2023-11-19T10:18:47;46.85;;;7.20;;
23716;SDS011;22094;52.130;5.598;2023-11-19T10:21:16;41.92;;;7.75;;
23716;SDS011;22094;52.130;5.598;2023-11-19T10:23:50;47.53;;;8.07;;
23716;SDS011;22094;52.130;5.598;2023-11-19T10:26:16;41.35;;;8.05;;
23716;SDS011;22094;52.130;5.598;2023-11-19T10:28:42;49.10;;;7.68;;
23716;SDS011;22094;52.130;5.598;2023-11-19T10:31:09;45.33;;;7.10;;
23716;SDS011;22094;52.130;5.598;2023-11-19T10:33:36;34.10;;;7.00;;
23716;SDS011;22094;52.130;5.598;2023-11-19T10:36:01;41.97;;;7.72;;
23716;SDS011;22094;52.130;5.598;2023-11-19T10:38:27;35.35;;;6.07;;
23716;SDS011;22094;52.130;5.598;2023-11-19T10:40:53;38.80;;;7.40;;
23716;SDS011;22094;52.130;5.598;2023-11-19T10:43:20;33.28;;;6.43;;
23716;SDS011;22094;52.130;5.598;2023-11-19T10:45:47;36.38;;;6.53;;
23716;SDS011;22094;52.130;5.598;2023-11-19T10:48:13;38.20;;;7.00;;
23716;SDS011;22094;52.130;5.598;2023-11-19T10:50:40;34.00;;;6.47;;
23716;SDS011;22094;52.130;5.598;2023-11-19T10:53:08;38.58;;;6.75;;
23716;SDS011;22094;52.130;5.598;2023-11-19T10:55:35;43.53;;;6.63;;
23716;SDS011;22094;52.130;5.598;2023-11-19T10:58:09;42.00;;;7.40;;
23716;SDS011;22094;52.130;5.598;2023-11-19T11:00:41;38.20;;;6.90;;
23716;SDS011;22094;52.130;5.598;2023-11-19T11:03:19;43.85;;;8.02;;
23716;SDS011;22094;52.130;5.598;2023-11-19T11:05:52;35.15;;;7.15;;
23716;SDS011;22094;52.130;5.598;2023-11-19T11:08:20;38.55;;;7.38;;
23716;SDS011;22094;52.130;5.598;2023-11-19T11:10:52;35.20;;;6.63;;
23716;SDS011;22094;52.130;5.598;2023-11-19T11:13:19;37.88;;;6.78;;
23716;SDS011;22094;52.130;5.598;2023-11-19T11:15:45;35.67;;;6.90;;
23716;SDS011;22094;52.130;5.598;2023-11-19T11:18:12;37.05;;;6.90;;
23716;SDS011;22094;52.130;5.598;2023-11-19T11:20:39;39.03;;;7.10;;
23716;SDS011;22094;52.130;5.598;2023-11-19T11:28:50;35.60;;;6.53;;
23716;SDS011;22094;52.130;5.598;2023-11-19T11:39:46;38.38;;;7.10;;
23716;SDS011;22094;52.130;5.598;2023-11-19T11:45:00;45.15;;;7.30;;
23716;SDS011;22094;52.130;5.598;2023-11-19T11:50:11;35.42;;;6.85;;
23716;SDS011;22094;52.130;5.598;2023-11-19T11:55:24;35.67;;;6.93;;
23716;SDS011;22094;52.130;5.598;2023-11-19T11:57:53;38.17;;;7.22;;
23716;SDS011;22094;52.130;5.598;2023-11-19T12:00:38;34.85;;;7.22;;
23716;SDS011;22094;52.130;5.598;2023-11-19T12:03:05;37.13;;;6.75;;
23716;SDS011;22094;52.130;5.598;2023-11-19T12:05:40;39.72;;;7.47;;
23716;SDS011;22094;52.130;5.598;2023-11-19T12:08:10;30.50;;;6.25;;
23716;SDS011;22094;52.130;5.598;2023-11-19T12:10:47;41.78;;;7.28;;
23716;SDS011;22094;52.130;5.598;2023-11-19T12:13:15;38.00;;;6.60;;
23716;SDS011;22094;52.130;5.598;2023-11-19T12:20:49;29.25;;;6.00;;
23716;SDS011;22094;52.130;5.598;2023-11-19T12:23:15;31.15;;;5.07;;
23716;SDS011;22094;52.130;5.598;2023-11-19T12:25:41;30.15;;;5.70;;
23716;SDS011;22094;52.130;5.598;2023-11-19T12:28:13;27.67;;;5.40;;
23716;SDS011;22094;52.130;5.598;2023-11-19T12:30:39;30.48;;;5.35;;
23716;SDS011;22094;52.130;5.598;2023-11-19T12:33:08;27.25;;;5.30;;
23716;SDS011;22094;52.130;5.598;2023-11-19T12:35:38;28.98;;;5.43;;
23716;SDS011;22094;52.130;5.598;2023-11-19T12:38:08;27.52;;;5.60;;
23716;SDS011;22094;52.130;5.598;2023-11-19T12:40:45;24.70;;;5.38;;
23716;SDS011;22094;52.130;5.598;2023-11-19T12:43:11;23.48;;;4.95;;
23716;SDS011;22094;52.130;5.598;2023-11-19T12:45:47;27.77;;;5.40;;
23716;SDS011;22094;52.130;5.598;2023-11-19T12:48:13;24.42;;;5.35;;
23716;SDS011;22094;52.130;5.598;2023-11-19T12:51:00;26.27;;;5.55;;
23716;SDS011;22094;52.130;5.598;2023-11-19T12:53:26;28.40;;;5.65;;
23716;SDS011;22094;52.130;5.598;2023-11-19T12:55:53;29.73;;;5.55;;
23716;SDS011;22094;52.130;5.598;2023-11-19T12:58:35;30.20;;;5.40;;
23716;SDS011;22094;52.130;5.598;2023-11-19T13:01:08;31.38;;;5.65;;
23716;SDS011;22094;52.130;5.598;2023-11-19T13:03:38;34.65;;;7.07;;
23716;SDS011;22094;52.130;5.598;2023-11-19T13:06:04;28.70;;;5.47;;
23716;SDS011;22094;52.130;5.598;2023-11-19T13:08:36;35.03;;;6.13;;
23716;SDS011;22094;52.130;5.598;2023-11-19T13:11:13;37.00;;;6.78;;
23716;SDS011;22094;52.130;5.598;2023-11-19T13:13:59;33.35;;;6.35;;
23716;SDS011;22094;52.130;5.598;2023-11-19T13:16:26;29.15;;;5.88;;
23716;SDS011;22094;52.130;5.598;2023-11-19T13:18:52;29.95;;;5.65;;
23716;SDS011;22094;52.130;5.598;2023-11-19T13:21:18;28.85;;;6.13;;
23716;SDS011;22094;52.130;5.598;2023-11-19T13:23:44;31.02;;;5.97;;
23716;SDS011;22094;52.130;5.598;2023-11-19T13:26:10;30.65;;;5.63;;
23716;SDS011;22094;52.130;5.598;2023-11-19T13:28:36;33.83;;;5.68;;
23716;SDS011;22094;52.130;5.598;2023-11-19T13:31:02;35.28;;;6.18;;
23716;SDS011;22094;52.130;5.598;2023-11-19T13:33:28;37.53;;;6.55;;
23716;SDS011;22094;52.130;5.598;2023-11-19T13:35:54;36.78;;;6.25;;
23716;SDS011;22094;52.130;5.598;2023-11-19T13:38:20;38.40;;;7.30;;
23716;SDS011;22094;52.130;5.598;2023-11-19T13:40:48;38.78;;;6.28;;
23716;SDS011;22094;52.130;5.598;2023-11-19T13:43:13;44.25;;;7.05;;
23716;SDS011;22094;52.130;5.598;2023-11-19T13:45:39;35.67;;;5.82;;
23716;SDS011;22094;52.130;5.598;2023-11-19T13:48:07;43.22;;;6.18;;
23716;SDS011;22094;52.130;5.598;2023-11-19T13:50:32;32.33;;;6.63;;
23716;SDS011;22094;52.130;5.598;2023-11-19T13:52:59;38.15;;;6.57;;
23716;SDS011;22094;52.130;5.598;2023-11-19T13:55:25;40.42;;;6.78;;
23716;SDS011;22094;52.130;5.598;2023-11-19T13:57:50;38.75;;;6.50;;
23716;SDS011;22094;52.130;5.598;2023-11-19T14:00:16;37.97;;;6.72;;
23716;SDS011;22094;52.130;5.598;2023-11-19T14:02:44;38.65;;;6.85;;
23716;SDS011;22094;52.130;5.598;2023-11-19T14:05:12;37.97;;;6.75;;
23716;SDS011;22094;52.130;5.598;2023-11-19T14:07:38;38.92;;;6.72;;
23716;SDS011;22094;52.130;5.598;2023-11-19T14:10:05;35.45;;;5.90;;
23716;SDS011;22094;52.130;5.598;2023-11-19T14:12:36;33.13;;;6.38;;
23716;SDS011;22094;52.130;5.598;2023-11-19T14:15:06;28.25;;;4.90;;
23716;SDS011;22094;52.130;5.598;2023-11-19T14:17:38;34.20;;;5.78;;
23716;SDS011;22094;52.130;5.598;2023-11-19T14:20:04;30.48;;;5.18;;
23716;SDS011;22094;52.130;5.598;2023-11-19T14:22:37;28.30;;;5.82;;
23716;SDS011;22094;52.130;5.598;2023-11-19T14:25:04;30.20;;;6.50;;
23716;SDS011;22094;52.130;5.598;2023-11-19T14:27:30;29.58;;;5.82;;
23716;SDS011;22094;52.130;5.598;2023-11-19T14:29:55;32.60;;;5.90;;
23716;SDS011;22094;52.130;5.598;2023-11-19T14:32:21;27.80;;;5.57;;
23716;SDS011;22094;52.130;5.598;2023-11-19T14:34:47;32.70;;;5.95;;
23716;SDS011;22094;52.130;5.598;2023-11-19T14:37:12;33.65;;;5.55;;
23716;SDS011;22094;52.130;5.598;2023-11-19T14:39:38;41.13;;;6.80;;
23716;SDS011;22094;52.130;5.598;2023-11-19T14:42:04;32.58;;;6.65;;
23716;SDS011;22094;52.130;5.598;2023-11-19T14:44:33;34.97;;;6.10;;
23716;SDS011;22094;52.130;5.598;2023-11-19T14:46:59;36.88;;;6.32;;
23716;SDS011;22094;52.130;5.598;2023-11-19T14:49:36;34.65;;;6.03;;
23716;SDS011;22094;52.130;5.598;2023-11-19T14:52:08;33.30;;;6.00;;
23716;SDS011;22094;52.130;5.598;2023-11-19T14:54:35;29.67;;;5.78;;
23716;SDS011;22094;52.130;5.598;2023-11-19T14:57:00;36.80;;;6.28;;
23716;SDS011;22094;52.130;5.598;2023-11-19T14:59:26;30.13;;;5.28;;
23716;SDS011;22094;52.130;5.598;2023-11-19T15:01:53;39.55;;;6.32;;
23716;SDS011;22094;52.130;5.598;2023-11-19T15:04:18;37.45;;;6.30;;